Time,TemperatureF,DewpointF,PressureIn,WindDirection,WindDirectionDegrees,WindSpeedMPH,WindSpeedGustMPH,Humidity,HourlyPrecipIn,Conditions,Clouds,dailyrainin,SolarRadiationWatts/m^2,SoftwareType,DateUTC
2013-10-22 00:01:00,70.5,68.7,29.92,NNW,348,0.0,0.0,94,0.00,RA,SKC,0.00,0.0,WeatherDisplay:10.37,2013-10-22 05:01:00,
2013-10-22 00:06:00,70.6,68.8,29.92,NNW,348,0.0,0.0,94,0.00,RA,SKC,0.00,0.0,WeatherDisplay:10.37,2013-10-22 05:06:00,
2013-10-22 00:11:00,70.6,68.8,29.92,NNW,348,0.0,0.0,94,0.00,CLR,SKC,0.00,0.0,WeatherDisplay:10.37,2013-10-22 05:11:00,
2013-10-22 00:16:00,70.5,68.4,29.92,NNW,348,0.0,0.0,93,0.00,CLR,SKC,0.00,0.0,WeatherDisplay:10.37,2013-10-22 05:16:00,
2013-10-22 00:21:00,70.4,68.6,29.92,NNW,348,0.0,0.0,94,0.00,CLR,SKC,0.00,0.0,WeatherDisplay:10.37,2013-10-22 05:21:00,
2013-10-22 00:26:00,70.4,68.6,29.92,NNW,348,0.0,0.0,94,0.00,CLR,SKC,0.00,0.0,WeatherDisplay:10.37,2013-10-22 05:26:00,
2013-10-22 00:31:00,70.4,68.6,29.92,NNW,348,0.0,0.0,94,0.00,CLR,SKC,0.00,0.0,WeatherDisplay:10.37,2013-10-22 05:31:00,
2013-10-22 00:36:00,70.4,68.6,29.92,NNW,348,0.0,0.0,94,0.00,CLR,SKC,0.00,0.0,WeatherDisplay:10.37,2013-10-22 05:36:00,
2013-10-22 00:41:00,70.4,68.6,29.93,NNW,348,0.0,0.0,94,0.00,CLR,SKC,0.00,0.0,WeatherDisplay:10.37,2013-10-22 05:41:00,
2013-10-22 00:46:00,70.3,68.5,29.93,NNW,348,0.0,0.0,94,0.00,CLR,SKC,0.00,0.0,WeatherDisplay:10.37,2013-10-22 05:46:00,
2013-10-22 00:51:00,70.3,68.5,29.93,NNW,348,0.0,0.0,94,0.00,CLR,SKC,0.00,0.0,WeatherDisplay:10.37,2013-10-22 05:51:00,
2013-10-22 00:56:00,70.3,68.5,29.93,NNW,348,0.0,0.0,94,0.00,CLR,SKC,0.00,0.0,WeatherDisplay:10.37,2013-10-22 05:56:00,
2013-10-22 01:01:00,70.3,68.5,29.93,NNW,348,1.2,1.2,94,0.00,CLR,SKC,0.00,0.0,WeatherDisplay:10.37,2013-10-22 06:01:00,
2013-10-22 01:06:00,70.4,68.6,29.93,NNW,348,0.0,0.0,94,0.00,CLR,SKC,0.00,0.0,WeatherDisplay:10.37,2013-10-22 06:06:00,
2013-10-22 01:11:00,70.3,68.5,29.93,NNW,348,0.0,0.0,94,0.00,CLR,SKC,0.00,0.0,WeatherDisplay:10.37,2013-10-22 06:11:00,
2013-10-22 01:16:00,70.3,68.5,29.93,NNW,348,0.0,0.0,94,0.00,CLR,SKC,0.00,0.0,WeatherDisplay:10.37,2013-10-22 06:16:00,
2013-10-22 01:21:00,70.3,68.5,29.93,NNW,348,0.0,0.0,94,0.00,CLR,SKC,0.00,0.0,WeatherDisplay:10.37,2013-10-22 06:21:00,
2013-10-22 01:26:00,70.3,68.5,29.94,NNW,342,2.3,2.3,94,0.00,CLR,SKC,0.00,0.0,WeatherDisplay:10.37,2013-10-22 06:26:00,
2013-10-22 01:31:00,70.3,68.5,29.94,NNW,342,0.0,0.0,94,0.00,CLR,SKC,0.00,0.0,WeatherDisplay:10.37,2013-10-22 06:31:00,
2013-10-22 01:36:00,70.4,68.6,29.94,NNW,342,1.2,1.2,94,0.00,CLR,SKC,0.00,0.0,WeatherDisplay:10.37,2013-10-22 06:36:00,
2013-10-22 01:41:00,70.4,68.6,29.94,NNW,342,0.0,0.2,94,0.00,CLR,SKC,0.00,0.0,WeatherDisplay:10.37,2013-10-22 06:41:00,
2013-10-22 01:46:00,70.5,68.7,29.94,North,355,2.3,2.3,94,0.00,CLR,SKC,0.00,0.0,WeatherDisplay:10.37,2013-10-22 06:46:00,
2013-10-22 01:51:00,70.6,68.8,29.94,North,355,3.5,3.5,94,0.00,CLR,SKC,0.00,0.0,WeatherDisplay:10.37,2013-10-22 06:51:00,
2013-10-22 01:56:00,70.7,68.9,29.94,NNW,338,1.2,0.0,94,0.00,CLR,SKC,0.01,0.0,WeatherDisplay:10.37,2013-10-22 06:56:00,
2013-10-22 02:01:00,71.0,69.2,29.94,NNW,340,1.2,1.4,94,0.01,RA,SKC,0.01,0.0,WeatherDisplay:10.37,2013-10-22 07:01:00,
2013-10-22 02:06:00,71.1,69.3,29.94,NNW,347,4.6,4.6,94,0.01,RA,SKC,0.01,0.0,WeatherDisplay:10.37,2013-10-22 07:06:00,
2013-10-22 02:11:00,71.2,69.4,29.94,North,10,3.5,3.5,94,0.01,CLR,SKC,0.01,0.0,WeatherDisplay:10.37,2013-10-22 07:11:00,
2013-10-22 02:16:00,71.0,69.2,29.94,North,9,3.5,3.5,94,0.01,CLR,SKC,0.01,0.0,WeatherDisplay:10.37,2013-10-22 07:16:00,
2013-10-22 02:21:00,70.8,69.0,29.94,NW,325,3.5,3.5,94,0.01,CLR,SKC,0.01,0.0,WeatherDisplay:10.37,2013-10-22 07:21:00,
2013-10-22 02:26:00,70.7,68.9,29.94,NW,323,4.6,4.6,94,0.01,CLR,SKC,0.01,0.0,WeatherDisplay:10.37,2013-10-22 07:26:00,
2013-10-22 02:31:00,70.5,69.0,29.94,North,355,5.8,5.8,95,0.01,CLR,SKC,0.01,0.0,WeatherDisplay:10.37,2013-10-22 07:31:00,
2013-10-22 02:36:00,70.4,68.9,29.94,North,5,3.5,3.5,95,0.01,CLR,SKC,0.01,0.0,WeatherDisplay:10.37,2013-10-22 07:36:00,
2013-10-22 02:41:00,70.3,68.8,29.94,North,360,4.6,4.6,95,0.01,CLR,SKC,0.01,0.0,WeatherDisplay:10.37,2013-10-22 07:41:00,
2013-10-22 02:46:00,70.3,68.8,29.94,NNE,17,5.8,5.8,95,0.01,CLR,SKC,0.01,0.0,WeatherDisplay:10.37,2013-10-22 07:46:00,
2013-10-22 02:51:00,70.3,69.1,29.94,North,351,3.5,3.5,96,0.01,CLR,SKC,0.01,0.0,WeatherDisplay:10.37,2013-10-22 07:51:00,
2013-10-22 02:56:00,70.2,69.0,29.94,NNW,335,4.6,4.6,96,0.01,CLR,SKC,0.01,0.0,WeatherDisplay:10.37,2013-10-22 07:56:00,
2013-10-22 03:01:00,70.1,68.9,29.94,North,351,5.8,5.8,96,0.00,CLR,SKC,0.01,0.0,WeatherDisplay:10.37,2013-10-22 08:01:00,
2013-10-22 03:06:00,70.0,68.8,29.94,NNW,341,3.5,3.5,96,0.00,CLR,SKC,0.01,0.0,WeatherDisplay:10.37,2013-10-22 08:06:00,
2013-10-22 03:11:00,69.9,68.7,29.94,NE,39,4.6,4.6,96,0.00,CLR,SKC,0.01,0.0,WeatherDisplay:10.37,2013-10-22 08:11:00,
2013-10-22 03:16:00,69.8,68.6,29.94,NNW,342,3.5,3.5,96,0.00,CLR,SKC,0.01,0.0,WeatherDisplay:10.37,2013-10-22 08:16:00,
2013-10-22 03:21:00,69.8,68.6,29.94,NW,325,9.2,9.2,96,0.00,CLR,SKC,0.01,0.0,WeatherDisplay:10.37,2013-10-22 08:21:00,
2013-10-22 03:26:00,69.8,68.6,29.93,NW,317,6.9,6.9,96,0.00,CLR,SKC,0.01,0.0,WeatherDisplay:10.37,2013-10-22 08:26:00,
2013-10-22 03:31:00,69.8,68.6,29.93,NNW,335,6.9,6.9,96,0.00,CLR,SKC,0.01,0.0,WeatherDisplay:10.37,2013-10-22 08:31:00,
2013-10-22 03:36:00,69.7,68.5,29.93,North,360,8.1,8.1,96,0.00,CLR,SKC,0.01,0.0,WeatherDisplay:10.37,2013-10-22 08:36:00,
2013-10-22 03:41:00,69.5,68.3,29.94,NNW,328,4.6,4.6,96,0.00,CLR,SKC,0.01,0.0,WeatherDisplay:10.37,2013-10-22 08:41:00,
2013-10-22 03:46:00,69.5,68.3,29.94,NNE,15,6.9,6.9,96,0.00,CLR,SKC,0.01,0.0,WeatherDisplay:10.37,2013-10-22 08:46:00,
2013-10-22 03:51:00,69.6,68.4,29.94,NNW,335,6.9,6.9,96,0.00,CLR,SKC,0.01,0.0,WeatherDisplay:10.37,2013-10-22 08:51:00,
2013-10-22 03:56:00,69.7,68.5,29.94,NNW,345,6.9,6.9,96,0.00,CLR,SKC,0.01,0.0,WeatherDisplay:10.37,2013-10-22 08:56:00,
2013-10-22 04:01:00,69.9,68.7,29.94,North,5,3.5,3.5,96,0.00,CLR,SKC,0.01,0.0,WeatherDisplay:10.37,2013-10-22 09:01:00,
2013-10-22 04:06:00,70.1,68.9,29.94,North,349,3.5,3.5,96,0.00,CLR,SKC,0.01,0.0,WeatherDisplay:10.37,2013-10-22 09:06:00,
2013-10-22 04:11:00,70.2,69.0,29.94,NW,318,9.0,9.0,96,0.00,CLR,SKC,0.01,0.0,WeatherDisplay:10.37,2013-10-22 09:11:00,
2013-10-22 04:16:00,70.2,69.0,29.94,North,355,6.9,6.9,96,0.00,CLR,SKC,0.01,0.0,WeatherDisplay:10.37,2013-10-22 09:16:00,
2013-10-22 04:21:00,70.2,69.0,29.94,NNE,30,6.9,6.9,96,0.00,CLR,SKC,0.01,0.0,WeatherDisplay:10.37,2013-10-22 09:21:00,
2013-10-22 04:26:00,70.3,69.1,29.94,NW,317,10.4,10.4,96,0.00,CLR,SKC,0.01,0.0,WeatherDisplay:10.37,2013-10-22 09:26:00,
2013-10-22 04:31:00,69.8,68.3,29.94,NW,320,13.8,13.8,95,0.00,CLR,SKC,0.01,0.0,WeatherDisplay:10.37,2013-10-22 09:31:00,
2013-10-22 04:36:00,69.4,67.9,29.94,NW,321,11.5,11.5,95,0.00,CLR,SKC,0.01,0.0,WeatherDisplay:10.37,2013-10-22 09:36:00,
2013-10-22 04:41:00,69.5,67.7,29.95,NNW,346,13.0,13.0,94,0.00,CLR,SKC,0.01,0.0,WeatherDisplay:10.37,2013-10-22 09:41:00,
2013-10-22 04:46:00,69.7,67.9,29.95,NNW,334,11.5,11.5,94,0.00,CLR,SKC,0.01,0.0,WeatherDisplay:10.37,2013-10-22 09:46:00,
2013-10-22 04:51:00,69.6,67.5,29.95,NW,319,13.8,13.8,93,0.00,CLR,SKC,0.01,0.0,WeatherDisplay:10.37,2013-10-22 09:51:00,
2013-10-22 04:56:00,69.1,66.7,29.95,NW,319,13.8,13.8,92,0.00,CLR,SKC,0.01,0.0,WeatherDisplay:10.37,2013-10-22 09:56:00,
2013-10-22 05:01:00,68.8,65.7,29.95,NNW,327,12.7,12.7,90,0.00,CLR,SKC,0.01,0.0,WeatherDisplay:10.37,2013-10-22 10:01:00,
2013-10-22 05:06:00,68.6,65.2,29.95,NNW,333,10.4,10.4,89,0.00,CLR,SKC,0.01,0.0,WeatherDisplay:10.37,2013-10-22 10:06:00,
2013-10-22 05:11:00,68.8,65.4,29.96,NNW,342,16.1,16.1,89,0.00,CLR,SKC,0.01,0.0,WeatherDisplay:10.37,2013-10-22 10:11:00,
2013-10-22 05:16:00,68.6,65.2,29.96,NW,323,11.5,11.5,89,0.00,CLR,SKC,0.01,0.0,WeatherDisplay:10.37,2013-10-22 10:16:00,
2013-10-22 05:21:00,68.5,65.1,29.96,NNE,22,10.0,10.0,89,0.00,CLR,SKC,0.01,0.0,WeatherDisplay:10.37,2013-10-22 10:21:00,
2013-10-22 05:26:00,68.3,65.3,29.96,North,350,13.8,13.8,90,0.00,CLR,SKC,0.01,0.0,WeatherDisplay:10.37,2013-10-22 10:26:00,
2013-10-22 05:31:00,68.1,64.7,29.96,NNE,15,12.0,12.0,89,0.00,CLR,SKC,0.01,0.0,WeatherDisplay:10.37,2013-10-22 10:31:00,
2013-10-22 05:36:00,67.8,64.4,29.96,NW,313,15.0,15.0,89,0.00,CLR,SKC,0.01,0.0,WeatherDisplay:10.37,2013-10-22 10:36:00,
2013-10-22 05:41:00,67.6,64.6,29.98,NE,37,15.0,15.0,90,0.00,CLR,SKC,0.01,0.0,WeatherDisplay:10.37,2013-10-22 10:41:00,
2013-10-22 05:46:00,67.3,63.9,29.98,NNE,20,12.7,12.7,89,0.00,CLR,SKC,0.01,0.0,WeatherDisplay:10.37,2013-10-22 10:46:00,
2013-10-22 05:51:00,67.2,63.8,29.98,NNE,23,18.4,18.4,89,0.00,CLR,SKC,0.01,0.0,WeatherDisplay:10.37,2013-10-22 10:51:00,
2013-10-22 05:56:00,67.1,63.7,29.98,North,360,18.4,18.4,89,0.00,CLR,SKC,0.01,0.0,WeatherDisplay:10.37,2013-10-22 10:56:00,
2013-10-22 06:01:00,66.9,63.6,29.98,NNW,340,16.1,16.1,89,0.00,CLR,SKC,0.01,0.0,WeatherDisplay:10.37,2013-10-22 11:01:00,
2013-10-22 06:06:00,66.6,63.3,29.98,North,355,15.0,15.0,89,0.00,CLR,SKC,0.01,0.0,WeatherDisplay:10.37,2013-10-22 11:06:00,
2013-10-22 06:11:00,66.5,63.2,29.99,North,360,15.0,15.0,89,0.00,CLR,SKC,0.01,0.0,WeatherDisplay:10.37,2013-10-22 11:11:00,
2013-10-22 06:16:00,66.3,63.3,29.99,North,5,9.2,9.2,90,0.00,CLR,SKC,0.01,0.0,WeatherDisplay:10.37,2013-10-22 11:16:00,
2013-10-22 06:21:00,66.1,62.8,29.99,NNE,14,13.8,13.8,89,0.00,CLR,SKC,0.01,0.0,WeatherDisplay:10.37,2013-10-22 11:21:00,
2013-10-22 06:26:00,65.9,62.6,29.99,NW,315,10.4,10.4,89,0.00,CLR,SKC,0.01,0.0,WeatherDisplay:10.37,2013-10-22 11:26:00,
2013-10-22 06:31:00,65.8,62.8,29.99,NNW,347,10.0,10.0,90,0.00,CLR,SKC,0.01,0.0,WeatherDisplay:10.37,2013-10-22 11:31:00,
2013-10-22 06:36:00,65.6,62.3,29.99,North,5,13.0,13.0,89,0.00,CLR,SKC,0.01,0.0,WeatherDisplay:10.37,2013-10-22 11:36:00,
2013-10-22 06:41:00,65.4,62.1,30.00,NW,304,18.4,18.4,89,0.00,CLR,SKC,0.01,0.0,WeatherDisplay:10.37,2013-10-22 11:41:00,
2013-10-22 06:46:00,65.3,62.0,30.00,NNW,330,13.8,13.8,89,0.00,CLR,SKC,0.01,0.0,WeatherDisplay:10.37,2013-10-22 11:46:00,
2013-10-22 06:51:00,65.1,61.8,30.00,North,350,15.0,15.0,89,0.00,CLR,SKC,0.01,0.0,WeatherDisplay:10.37,2013-10-22 11:51:00,
2013-10-22 06:56:00,65.0,61.7,30.01,NNE,24,11.5,11.5,89,0.00,CLR,SKC,0.01,0.0,WeatherDisplay:10.37,2013-10-22 11:56:00,
2013-10-22 07:01:00,64.9,61.6,30.01,NE,40,15.0,15.0,89,0.00,CLR,SKC,0.01,0.0,WeatherDisplay:10.37,2013-10-22 12:01:00,
2013-10-22 07:06:00,64.8,61.5,30.01,NW,323,11.5,11.5,89,0.00,CLR,SKC,0.01,0.0,WeatherDisplay:10.37,2013-10-22 12:06:00,
2013-10-22 07:11:00,64.7,61.4,30.01,NNE,15,9.2,9.2,89,0.00,CLR,SKC,0.01,0.0,WeatherDisplay:10.37,2013-10-22 12:11:00,
2013-10-22 07:16:00,64.6,61.6,30.01,NE,38,6.9,6.9,90,0.00,CLR,SKC,0.01,0.0,WeatherDisplay:10.37,2013-10-22 12:16:00,
2013-10-22 07:21:00,64.5,61.2,30.01,NNW,336,11.5,11.5,89,0.00,CLR,SKC,0.01,0.0,WeatherDisplay:10.37,2013-10-22 12:21:00,
2013-10-22 07:26:00,64.4,61.4,30.01,NW,325,10.4,10.4,90,0.00,CLR,SKC,0.01,0.0,WeatherDisplay:10.37,2013-10-22 12:26:00,
2013-10-22 07:31:00,64.5,61.5,30.01,North,350,13.8,13.8,90,0.00,CLR,SKC,0.01,0.0,WeatherDisplay:10.37,2013-10-22 12:31:00,
2013-10-22 07:36:00,64.5,61.5,30.01,NNW,332,12.7,12.7,90,0.00,CLR,SKC,0.01,5.0,WeatherDisplay:10.37,2013-10-22 12:36:00,
2013-10-22 07:41:00,64.6,61.6,30.02,NW,305,10.4,10.4,90,0.00,CLR,SKC,0.01,9.0,WeatherDisplay:10.37,2013-10-22 12:41:00,
2013-10-22 07:46:00,64.5,61.5,30.02,North,360,12.0,12.0,90,0.00,CLR,SKC,0.01,16.0,WeatherDisplay:10.37,2013-10-22 12:46:00,
2013-10-22 07:51:00,64.5,61.5,30.02,NNW,341,10.4,10.4,90,0.00,CLR,SKC,0.01,21.0,WeatherDisplay:10.37,2013-10-22 12:51:00,
2013-10-22 07:56:00,64.3,61.3,30.03,NW,325,13.8,13.8,90,0.00,CLR,SKC,0.01,25.0,WeatherDisplay:10.37,2013-10-22 12:56:00,
2013-10-22 08:01:00,64.3,61.3,30.03,North,355,12.7,12.7,90,0.00,CLR,SKC,0.01,39.0,WeatherDisplay:10.37,2013-10-22 13:01:00,
2013-10-22 08:06:00,64.2,60.9,30.03,NW,312,12.0,12.0,89,0.00,CLR,SKC,0.01,54.0,WeatherDisplay:10.37,2013-10-22 13:06:00,
2013-10-22 08:12:00,64.2,60.9,30.04,NW,326,11.5,11.5,89,0.00,CLR,SKC,0.01,54.0,WeatherDisplay:10.37,2013-10-22 13:12:00,
2013-10-22 08:17:00,64.2,60.9,30.04,WNW,302,16.1,16.1,89,0.00,CLR,SKC,0.01,62.0,WeatherDisplay:10.37,2013-10-22 13:17:00,
2013-10-22 08:22:00,64.0,60.7,30.04,NNE,16,13.8,13.8,89,0.00,CLR,SKC,0.01,113.0,WeatherDisplay:10.37,2013-10-22 13:22:00,
2013-10-22 08:27:00,64.0,60.7,30.04,North,355,12.7,12.7,89,0.00,CLR,SKC,0.01,146.0,WeatherDisplay:10.37,2013-10-22 13:27:00,
2013-10-22 08:32:00,64.0,60.7,30.04,West,267,11.5,11.5,89,0.00,CLR,SKC,0.01,156.0,WeatherDisplay:10.37,2013-10-22 13:32:00,
2013-10-22 08:37:00,64.0,60.4,30.04,NW,324,11.5,11.5,88,0.00,CLR,SKC,0.01,142.0,WeatherDisplay:10.37,2013-10-22 13:37:00,
2013-10-22 08:42:00,64.0,60.4,30.04,NNW,329,12.7,12.7,88,0.00,CLR,SKC,0.01,206.0,WeatherDisplay:10.37,2013-10-22 13:42:00,
2013-10-22 08:47:00,64.0,60.4,30.04,NNW,338,17.3,17.3,88,0.00,CLR,SKC,0.01,207.0,WeatherDisplay:10.37,2013-10-22 13:47:00,
2013-10-22 08:52:00,64.2,60.6,30.04,NNW,329,11.5,11.5,88,0.00,CLR,SKC,0.01,244.0,WeatherDisplay:10.37,2013-10-22 13:52:00,
2013-10-22 08:57:00,64.3,60.7,30.04,NW,305,13.8,13.8,88,0.00,CLR,SKC,0.01,278.0,WeatherDisplay:10.37,2013-10-22 13:57:00,
2013-10-22 09:02:00,64.2,60.6,30.04,NW,320,13.8,13.8,88,0.00,CLR,SKC,0.01,294.0,WeatherDisplay:10.37,2013-10-22 14:02:00,
2013-10-22 09:07:00,64.3,60.7,30.04,NNW,339,13.8,13.8,88,0.00,CLR,SKC,0.01,237.0,WeatherDisplay:10.37,2013-10-22 14:07:00,
2013-10-22 09:12:00,64.0,60.1,30.04,WNW,300,15.0,15.0,87,0.00,CLR,SKC,0.01,221.0,WeatherDisplay:10.37,2013-10-22 14:12:00,
2013-10-22 09:17:00,64.0,60.4,30.04,NNW,344,11.5,11.5,88,0.00,CLR,SKC,0.01,257.0,WeatherDisplay:10.37,2013-10-22 14:17:00,
2013-10-22 09:22:00,64.0,60.1,30.04,NW,323,12.7,12.7,87,0.00,CLR,SKC,0.01,260.0,WeatherDisplay:10.37,2013-10-22 14:22:00,
2013-10-22 09:27:00,63.9,60.0,30.05,NNW,337,15.0,15.0,87,0.00,CLR,SKC,0.01,322.0,WeatherDisplay:10.37,2013-10-22 14:27:00,
2013-10-22 09:32:00,64.0,60.4,30.05,North,5,15.0,15.0,88,0.00,CLR,SKC,0.01,378.0,WeatherDisplay:10.37,2013-10-22 14:32:00,
2013-10-22 09:37:00,64.3,60.7,30.05,NNW,327,12.7,12.7,88,0.00,CLR,SKC,0.01,241.0,WeatherDisplay:10.37,2013-10-22 14:37:00,
2013-10-22 09:42:00,64.2,60.2,30.06,NNW,331,13.8,13.8,87,0.00,CLR,SKC,0.01,418.0,WeatherDisplay:10.37,2013-10-22 14:42:00,
2013-10-22 09:47:00,64.4,60.4,30.06,WNW,301,17.3,17.3,87,0.00,CLR,SKC,0.01,422.0,WeatherDisplay:10.37,2013-10-22 14:47:00,
2013-10-22 09:52:00,64.4,60.4,30.06,NNE,19,12.7,12.7,87,0.00,CLR,SKC,0.01,441.0,WeatherDisplay:10.37,2013-10-22 14:52:00,
2013-10-22 09:57:00,64.5,60.2,30.06,NNW,348,12.7,12.7,86,0.00,CLR,SKC,0.01,417.0,WeatherDisplay:10.37,2013-10-22 14:57:00,
2013-10-22 10:02:00,64.6,60.6,30.06,NNW,342,13.8,13.8,87,0.00,CLR,SKC,0.01,513.0,WeatherDisplay:10.37,2013-10-22 15:02:00,
2013-10-22 10:07:00,64.8,60.8,30.06,NW,321,15.0,15.0,87,0.00,CLR,SKC,0.01,538.0,WeatherDisplay:10.37,2013-10-22 15:07:00,
2013-10-22 10:12:00,65.0,60.7,30.07,NNW,339,7.0,7.0,86,0.00,CLR,SKC,0.01,403.0,WeatherDisplay:10.37,2013-10-22 15:12:00,
2013-10-22 10:17:00,64.9,60.6,30.07,NW,309,15.0,15.0,86,0.00,CLR,SKC,0.01,445.0,WeatherDisplay:10.37,2013-10-22 15:17:00,
2013-10-22 10:22:00,64.9,60.6,30.07,NNW,328,14.0,14.0,86,0.00,CLR,SKC,0.01,534.0,WeatherDisplay:10.37,2013-10-22 15:22:00,
2013-10-22 10:27:00,65.0,60.7,30.07,NNW,341,13.8,13.8,86,0.00,CLR,SKC,0.01,527.0,WeatherDisplay:10.37,2013-10-22 15:27:00,
2013-10-22 10:32:00,65.2,60.9,30.07,NW,318,17.3,17.3,86,0.00,CLR,SKC,0.01,496.0,WeatherDisplay:10.37,2013-10-22 15:32:00,
2013-10-22 10:37:00,65.0,60.4,30.07,NNW,341,13.8,13.8,85,0.00,CLR,SKC,0.01,522.0,WeatherDisplay:10.37,2013-10-22 15:37:00,
2013-10-22 10:42:00,65.4,60.8,30.07,NW,322,13.8,13.8,85,0.00,CLR,SKC,0.01,603.0,WeatherDisplay:10.37,2013-10-22 15:42:00,
2013-10-22 10:47:00,65.5,61.2,30.07,WNW,303,12.7,12.7,86,0.00,CLR,SKC,0.01,561.0,WeatherDisplay:10.37,2013-10-22 15:47:00,
2013-10-22 10:52:00,65.5,60.9,30.07,NW,313,16.1,16.1,85,0.00,CLR,SKC,0.01,605.0,WeatherDisplay:10.37,2013-10-22 15:52:00,
2013-10-22 10:57:00,65.6,61.0,30.07,North,355,15.0,15.0,85,0.00,CLR,SKC,0.01,605.0,WeatherDisplay:10.37,2013-10-22 15:57:00,
2013-10-22 11:02:00,65.8,61.2,30.07,NNW,334,12.7,12.7,85,0.00,CLR,SKC,0.01,657.0,WeatherDisplay:10.37,2013-10-22 16:02:00,
2013-10-22 11:07:00,66.0,61.4,30.07,NNW,348,12.7,12.7,85,0.00,CLR,SKC,0.01,582.0,WeatherDisplay:10.37,2013-10-22 16:07:00,
2013-10-22 11:12:00,66.0,61.0,30.07,NW,315,17.3,17.3,84,0.00,CLR,SKC,0.01,636.0,WeatherDisplay:10.37,2013-10-22 16:12:00,
2013-10-22 11:17:00,66.1,61.1,30.07,NNW,329,15.0,15.0,84,0.00,CLR,SKC,0.01,656.0,WeatherDisplay:10.37,2013-10-22 16:17:00,
2013-10-22 11:22:00,66.4,61.4,30.07,North,360,12.7,12.7,84,0.00,CLR,SKC,0.01,684.0,WeatherDisplay:10.37,2013-10-22 16:22:00,
2013-10-22 11:27:00,66.4,61.4,30.07,NW,305,12.7,12.7,84,0.00,CLR,SKC,0.01,670.0,WeatherDisplay:10.37,2013-10-22 16:27:00,
2013-10-22 11:32:00,66.7,61.4,30.07,WNW,302,15.0,15.0,83,0.00,CLR,SKC,0.01,710.0,WeatherDisplay:10.37,2013-10-22 16:32:00,
2013-10-22 11:37:00,66.7,61.4,30.07,WNW,286,12.7,12.7,83,0.00,CLR,SKC,0.01,707.0,WeatherDisplay:10.37,2013-10-22 16:37:00,
2013-10-22 11:42:00,66.8,61.5,30.07,NNW,342,11.5,11.5,83,0.00,CLR,SKC,0.01,628.0,WeatherDisplay:10.37,2013-10-22 16:42:00,
2013-10-22 11:47:00,66.8,61.8,30.07,NNW,329,11.5,11.5,84,0.00,CLR,SKC,0.01,737.0,WeatherDisplay:10.37,2013-10-22 16:47:00,
2013-10-22 11:52:00,67.1,62.1,30.07,NW,319,10.4,10.4,84,0.00,CLR,SKC,0.01,624.0,WeatherDisplay:10.37,2013-10-22 16:52:00,
2013-10-22 11:57:00,67.6,62.6,30.07,NW,321,9.2,9.2,84,0.00,CLR,SKC,0.01,673.0,WeatherDisplay:10.37,2013-10-22 16:57:00,
2013-10-22 12:02:00,67.5,62.2,30.07,NW,312,15.0,15.0,83,0.00,CLR,SKC,0.01,701.0,WeatherDisplay:10.37,2013-10-22 17:02:00,
2013-10-22 12:07:00,67.7,62.0,30.07,WNW,289,12.7,12.7,82,0.00,CLR,SKC,0.01,705.0,WeatherDisplay:10.37,2013-10-22 17:07:00,
2013-10-22 12:12:00,67.8,62.1,30.07,WNW,298,16.1,16.1,82,0.00,CLR,SKC,0.01,687.0,WeatherDisplay:10.37,2013-10-22 17:12:00,
2013-10-22 12:17:00,67.8,62.1,30.07,NW,319,12.7,12.7,82,0.00,CLR,SKC,0.01,656.0,WeatherDisplay:10.37,2013-10-22 17:17:00,
2013-10-22 12:22:00,68.2,62.5,30.07,WNW,298,11.5,11.5,82,0.00,CLR,SKC,0.01,738.0,WeatherDisplay:10.37,2013-10-22 17:22:00,
2013-10-22 12:27:00,68.1,62.4,30.07,NW,312,15.0,15.0,82,0.00,CLR,SKC,0.01,668.0,WeatherDisplay:10.37,2013-10-22 17:27:00,
2013-10-22 12:32:00,68.4,62.3,30.07,NW,321,11.5,11.5,81,0.00,CLR,SKC,0.01,705.0,WeatherDisplay:10.37,2013-10-22 17:32:00,
2013-10-22 12:37:00,68.7,62.6,30.07,WNW,296,11.5,11.5,81,0.00,CLR,SKC,0.01,707.0,WeatherDisplay:10.37,2013-10-22 17:37:00,
2013-10-22 12:42:00,68.9,62.8,30.07,WNW,295,15.0,15.0,81,0.00,CLR,SKC,0.01,759.0,WeatherDisplay:10.37,2013-10-22 17:42:00,
2013-10-22 12:47:00,68.7,62.3,30.07,NW,315,12.7,12.7,80,0.00,CLR,SKC,0.01,786.0,WeatherDisplay:10.37,2013-10-22 17:47:00,
2013-10-22 12:52:00,69.1,62.7,30.07,WNW,298,13.8,13.8,80,0.00,CLR,SKC,0.01,789.0,WeatherDisplay:10.37,2013-10-22 17:52:00,
2013-10-22 12:57:00,69.4,62.6,30.06,NW,318,12.7,12.7,79,0.00,CLR,SKC,0.01,788.0,WeatherDisplay:10.37,2013-10-22 17:57:00,
2013-10-22 13:02:00,69.7,62.9,30.06,NNW,332,11.5,11.5,79,0.00,CLR,SKC,0.01,786.0,WeatherDisplay:10.37,2013-10-22 18:02:00,
2013-10-22 13:07:00,69.8,63.0,30.06,NW,317,11.5,11.5,79,0.00,CLR,SKC,0.01,758.0,WeatherDisplay:10.37,2013-10-22 18:07:00,
2013-10-22 13:12:00,70.0,63.2,30.05,NW,315,12.0,12.0,79,0.00,CLR,SKC,0.01,784.0,WeatherDisplay:10.37,2013-10-22 18:12:00,
2013-10-22 13:17:00,70.1,63.3,30.05,WNW,297,12.0,12.0,79,0.00,CLR,SKC,0.01,766.0,WeatherDisplay:10.37,2013-10-22 18:17:00,
2013-10-22 13:22:00,70.3,63.1,30.05,NNW,340,11.5,11.5,78,0.00,CLR,SKC,0.01,761.0,WeatherDisplay:10.37,2013-10-22 18:22:00,
2013-10-22 13:27:00,70.3,63.1,30.05,West,281,11.5,11.5,78,0.00,CLR,SKC,0.01,772.0,WeatherDisplay:10.37,2013-10-22 18:27:00,
2013-10-22 13:32:00,70.4,63.2,30.05,NW,315,13.0,13.0,78,0.00,CLR,SKC,0.01,766.0,WeatherDisplay:10.37,2013-10-22 18:32:00,
2013-10-22 13:37:00,71.0,63.4,30.05,NW,321,11.0,11.0,77,0.00,CLR,SKC,0.01,737.0,WeatherDisplay:10.37,2013-10-22 18:37:00,
2013-10-22 13:42:00,70.8,63.2,30.04,NW,304,12.7,12.7,77,0.00,CLR,SKC,0.01,768.0,WeatherDisplay:10.37,2013-10-22 18:42:00,
2013-10-22 13:47:00,71.0,63.4,30.04,NNE,16,9.2,9.2,77,0.00,CLR,SKC,0.01,740.0,WeatherDisplay:10.37,2013-10-22 18:47:00,
2013-10-22 13:52:00,71.3,63.7,30.04,NW,315,11.5,11.5,77,0.00,CLR,SKC,0.01,765.0,WeatherDisplay:10.37,2013-10-22 18:52:00,
2013-10-22 13:57:00,71.5,63.5,30.04,NW,305,11.5,11.5,76,0.00,CLR,SKC,0.01,694.0,WeatherDisplay:10.37,2013-10-22 18:57:00,
2013-10-22 14:02:00,71.5,63.9,30.04,NW,308,10.4,10.4,77,0.00,CLR,SKC,0.01,738.0,WeatherDisplay:10.37,2013-10-22 19:02:00,
2013-10-22 14:07:00,71.7,63.4,30.04,NNW,329,10.4,10.4,75,0.00,CLR,SKC,0.01,696.0,WeatherDisplay:10.37,2013-10-22 19:07:00,
2013-10-22 14:12:00,71.9,63.5,30.03,WNW,302,10.4,10.4,75,0.00,CLR,SKC,0.01,744.0,WeatherDisplay:10.37,2013-10-22 19:12:00,
2013-10-22 14:17:00,72.4,63.6,30.03,NW,321,8.0,8.0,74,0.00,CLR,SKC,0.01,744.0,WeatherDisplay:10.37,2013-10-22 19:17:00,
2013-10-22 14:22:00,72.3,63.5,30.03,NNW,338,11.5,11.5,74,0.00,CLR,SKC,0.01,733.0,WeatherDisplay:10.37,2013-10-22 19:22:00,
2013-10-22 14:27:00,72.5,64.1,30.02,WNW,303,11.5,11.5,75,0.00,CLR,SKC,0.01,721.0,WeatherDisplay:10.37,2013-10-22 19:27:00,
2013-10-22 14:32:00,72.6,64.2,30.02,NW,313,11.5,11.5,75,0.00,CLR,SKC,0.01,703.0,WeatherDisplay:10.37,2013-10-22 19:32:00,
2013-10-22 14:37:00,72.8,64.4,30.02,NNE,18,10.4,10.4,75,0.00,CLR,SKC,0.01,691.0,WeatherDisplay:10.37,2013-10-22 19:37:00,
2013-10-22 14:42:00,72.8,64.0,30.02,NW,321,10.4,10.4,74,0.00,CLR,SKC,0.01,700.0,WeatherDisplay:10.37,2013-10-22 19:42:00,
2013-10-22 14:47:00,72.9,64.1,30.02,NNE,13,5.8,5.8,74,0.00,CLR,SKC,0.01,689.0,WeatherDisplay:10.37,2013-10-22 19:47:00,
2013-10-22 14:52:00,73.1,64.3,30.02,WNW,302,11.5,11.5,74,0.00,CLR,SKC,0.01,668.0,WeatherDisplay:10.37,2013-10-22 19:52:00,
2013-10-22 14:57:00,73.3,64.5,30.02,NNW,333,6.9,6.9,74,0.00,CLR,SKC,0.01,650.0,WeatherDisplay:10.37,2013-10-22 19:57:00,
2013-10-22 15:02:00,73.6,64.8,30.02,NW,325,9.2,9.2,74,0.00,CLR,SKC,0.01,575.0,WeatherDisplay:10.37,2013-10-22 20:02:00,
2013-10-22 15:07:00,73.8,64.2,30.02,NW,316,12.0,12.0,72,0.00,CLR,SKC,0.01,642.0,WeatherDisplay:10.37,2013-10-22 20:07:00,
2013-10-22 15:12:00,73.7,64.1,30.01,NNW,336,8.1,8.1,72,0.00,CLR,SKC,0.01,631.0,WeatherDisplay:10.37,2013-10-22 20:12:00,
2013-10-22 15:17:00,73.9,64.3,30.01,NW,315,6.9,6.9,72,0.00,CLR,SKC,0.01,615.0,WeatherDisplay:10.37,2013-10-22 20:17:00,
2013-10-22 15:22:00,74.0,64.0,30.01,North,350,4.6,4.6,71,0.00,CLR,SKC,0.01,621.0,WeatherDisplay:10.37,2013-10-22 20:22:00,
2013-10-22 15:27:00,74.1,64.1,30.01,NNW,332,11.5,11.5,71,0.00,CLR,SKC,0.01,608.0,WeatherDisplay:10.37,2013-10-22 20:27:00,
2013-10-22 15:32:00,74.2,64.6,30.01,NW,317,8.1,8.1,72,0.00,CLR,SKC,0.01,587.0,WeatherDisplay:10.37,2013-10-22 20:32:00,
2013-10-22 15:37:00,74.6,63.8,30.01,North,5,9.2,9.2,69,0.00,CLR,SKC,0.01,585.0,WeatherDisplay:10.37,2013-10-22 20:37:00,
2013-10-22 15:42:00,74.7,63.4,30.01,NW,321,9.2,9.2,68,0.00,CLR,SKC,0.01,561.0,WeatherDisplay:10.37,2013-10-22 20:42:00,
2013-10-22 15:47:00,74.9,63.6,30.01,NW,308,6.9,6.9,68,0.00,CLR,SKC,0.01,538.0,WeatherDisplay:10.37,2013-10-22 20:47:00,
2013-10-22 15:52:00,75.1,63.4,30.01,NW,323,11.5,11.5,67,0.00,CLR,SKC,0.01,531.0,WeatherDisplay:10.37,2013-10-22 20:52:00,
2013-10-22 15:57:00,75.1,63.8,30.00,North,5,5.8,5.8,68,0.00,CLR,SKC,0.01,531.0,WeatherDisplay:10.37,2013-10-22 20:57:00,
2013-10-22 16:02:00,75.2,63.5,30.00,NW,316,7.0,7.0,67,0.00,CLR,SKC,0.01,519.0,WeatherDisplay:10.37,2013-10-22 21:02:00,
2013-10-22 16:07:00,75.3,63.6,30.00,NW,317,11.5,11.5,67,0.00,CLR,SKC,0.01,499.0,WeatherDisplay:10.37,2013-10-22 21:07:00,
2013-10-22 16:12:00,75.2,63.1,29.99,NNW,338,10.4,10.4,66,0.00,CLR,SKC,0.01,483.0,WeatherDisplay:10.37,2013-10-22 21:12:00,
2013-10-22 16:17:00,75.5,63.3,29.99,NNW,331,9.2,9.2,66,0.00,CLR,SKC,0.01,468.0,WeatherDisplay:10.37,2013-10-22 21:17:00,
2013-10-22 16:22:00,75.4,63.2,29.99,WNW,302,10.4,10.4,66,0.00,CLR,SKC,0.01,457.0,WeatherDisplay:10.37,2013-10-22 21:22:00,
2013-10-22 16:27:00,75.6,63.4,30.00,NNW,340,10.4,10.4,66,0.00,CLR,SKC,0.01,441.0,WeatherDisplay:10.37,2013-10-22 21:27:00,
2013-10-22 16:32:00,75.8,63.2,30.00,NNE,17,4.6,4.6,65,0.00,CLR,SKC,0.01,424.0,WeatherDisplay:10.37,2013-10-22 21:32:00,
2013-10-22 16:37:00,75.7,63.5,30.00,NNW,334,5.8,5.8,66,0.00,CLR,SKC,0.01,408.0,WeatherDisplay:10.37,2013-10-22 21:37:00,
2013-10-22 16:42:00,75.7,63.5,30.00,North,349,6.9,6.9,66,0.00,CLR,SKC,0.01,394.0,WeatherDisplay:10.37,2013-10-22 21:42:00,
2013-10-22 16:47:00,75.9,63.3,30.00,North,360,10.4,10.4,65,0.00,CLR,SKC,0.01,371.0,WeatherDisplay:10.37,2013-10-22 21:47:00,
2013-10-22 16:52:00,76.2,63.1,30.00,NNW,344,10.4,10.4,64,0.00,CLR,SKC,0.01,359.0,WeatherDisplay:10.37,2013-10-22 21:52:00,
2013-10-22 16:57:00,76.2,63.1,29.99,NW,320,7.0,7.0,64,0.00,CLR,SKC,0.01,345.0,WeatherDisplay:10.37,2013-10-22 21:57:00,
2013-10-22 17:02:00,76.6,62.6,29.99,NNW,330,9.2,9.2,62,0.00,CLR,SKC,0.01,329.0,WeatherDisplay:10.37,2013-10-22 22:02:00,
2013-10-22 17:07:00,76.6,62.6,29.99,NNW,345,10.4,10.4,62,0.00,CLR,SKC,0.01,313.0,WeatherDisplay:10.37,2013-10-22 22:07:00,
2013-10-22 17:12:00,76.5,62.5,29.99,NNW,335,10.4,10.4,62,0.00,CLR,SKC,0.01,294.0,WeatherDisplay:10.37,2013-10-22 22:12:00,
2013-10-22 17:17:00,76.6,61.7,29.99,NNW,329,11.5,11.5,60,0.00,CLR,SKC,0.01,278.0,WeatherDisplay:10.37,2013-10-22 22:17:00,
2013-10-22 17:22:00,76.5,63.0,29.99,NNW,347,6.9,6.9,63,0.00,CLR,SKC,0.01,262.0,WeatherDisplay:10.37,2013-10-22 22:22:00,
2013-10-22 17:27:00,76.4,62.0,29.99,NNE,18,10.4,10.4,61,0.00,CLR,SKC,0.01,244.0,WeatherDisplay:10.37,2013-10-22 22:27:00,
2013-10-22 17:32:00,76.4,62.9,29.99,NNW,338,8.1,8.1,63,0.00,CLR,SKC,0.01,229.0,WeatherDisplay:10.37,2013-10-22 22:32:00,
2013-10-22 17:37:00,76.4,62.4,29.99,NNW,330,7.0,7.0,62,0.00,CLR,SKC,0.01,211.0,WeatherDisplay:10.37,2013-10-22 22:37:00,
2013-10-22 17:42:00,76.2,61.3,29.99,North,360,10.4,10.4,60,0.00,CLR,SKC,0.01,197.0,WeatherDisplay:10.37,2013-10-22 22:42:00,
2013-10-22 17:47:00,76.2,60.8,29.99,NNE,15,11.5,11.5,59,0.00,CLR,SKC,0.01,179.0,WeatherDisplay:10.37,2013-10-22 22:47:00,
2013-10-22 17:52:00,76.2,60.3,29.99,NNE,13,12.7,12.7,58,0.00,CLR,SKC,0.01,163.0,WeatherDisplay:10.37,2013-10-22 22:52:00,
2013-10-22 17:57:00,76.2,59.9,29.99,NNE,28,9.2,9.2,57,0.00,CLR,SKC,0.01,148.0,WeatherDisplay:10.37,2013-10-22 22:57:00,
2013-10-22 18:02:00,76.2,59.9,29.99,NNW,346,7.0,7.0,57,0.00,CLR,SKC,0.01,130.0,WeatherDisplay:10.37,2013-10-22 23:02:00,
2013-10-22 18:07:00,76.1,58.2,29.99,NNW,329,11.5,11.5,54,0.00,CLR,SKC,0.01,109.0,WeatherDisplay:10.37,2013-10-22 23:07:00,
2013-10-22 18:12:00,76.0,58.2,30.00,NNW,338,10.4,10.4,54,0.00,CLR,SKC,0.01,90.0,WeatherDisplay:10.37,2013-10-22 23:12:00,
2013-10-22 18:17:00,75.9,58.1,30.00,NNW,329,11.5,11.5,54,0.00,CLR,SKC,0.01,72.0,WeatherDisplay:10.37,2013-10-22 23:17:00,
2013-10-22 18:22:00,75.7,57.4,30.00,NW,319,6.9,6.9,53,0.00,CLR,SKC,0.01,56.0,WeatherDisplay:10.37,2013-10-22 23:22:00,
2013-10-22 18:27:00,75.6,56.7,30.00,NE,42,11.5,11.5,52,0.00,CLR,SKC,0.01,42.0,WeatherDisplay:10.37,2013-10-22 23:27:00,
2013-10-22 18:32:00,75.5,56.1,30.00,North,350,11.5,11.5,51,0.00,CLR,SKC,0.01,30.0,WeatherDisplay:10.37,2013-10-22 23:32:00,
2013-10-22 18:37:00,75.4,57.1,30.00,NNW,342,6.9,6.9,53,0.00,CLR,SKC,0.01,21.0,WeatherDisplay:10.37,2013-10-22 23:37:00,
2013-10-22 18:42:00,75.2,56.4,30.01,NE,42,6.9,6.9,52,0.00,CLR,SKC,0.01,12.0,WeatherDisplay:10.37,2013-10-22 23:42:00,
2013-10-22 18:47:00,75.0,56.7,30.01,NW,322,7.0,7.0,53,0.00,CLR,SKC,0.01,9.0,WeatherDisplay:10.37,2013-10-22 23:47:00,
2013-10-22 18:52:00,74.9,56.6,30.01,NNE,12,10.4,10.4,53,0.00,CLR,SKC,0.01,5.0,WeatherDisplay:10.37,2013-10-22 23:52:00,
2013-10-22 18:57:00,74.8,57.0,30.01,North,11,5.8,5.8,54,0.00,CLR,SKC,0.01,0.0,WeatherDisplay:10.37,2013-10-22 23:57:00,
2013-10-22 19:02:00,74.5,56.8,30.01,North,355,9.2,9.2,54,0.00,CLR,SKC,0.01,0.0,WeatherDisplay:10.37,2013-10-23 00:02:00,
2013-10-22 19:07:00,74.4,56.7,30.01,NNW,333,5.8,5.8,54,0.00,CLR,SKC,0.01,0.0,WeatherDisplay:10.37,2013-10-23 00:07:00,
2013-10-22 19:12:00,74.3,57.1,30.01,North,350,4.0,4.0,55,0.00,CLR,SKC,0.01,0.0,WeatherDisplay:10.37,2013-10-23 00:12:00,
2013-10-22 19:17:00,74.1,56.9,30.01,North,355,9.2,9.2,55,0.00,CLR,SKC,0.01,0.0,WeatherDisplay:10.37,2013-10-23 00:17:00,
2013-10-22 19:22:00,74.0,56.8,30.01,NNW,348,10.4,10.4,55,0.00,CLR,SKC,0.01,0.0,WeatherDisplay:10.37,2013-10-23 00:22:00,
2013-10-22 19:27:00,73.9,57.2,30.02,NE,39,5.8,5.8,56,0.00,CLR,SKC,0.01,0.0,WeatherDisplay:10.37,2013-10-23 00:27:00,
2013-10-22 19:32:00,73.7,57.0,30.02,NE,36,6.9,6.9,56,0.00,CLR,SKC,0.01,0.0,WeatherDisplay:10.37,2013-10-23 00:32:00,
2013-10-22 19:37:00,73.6,56.4,30.02,North,360,6.0,6.0,55,0.00,CLR,SKC,0.01,0.0,WeatherDisplay:10.37,2013-10-23 00:37:00,
2013-10-22 19:42:00,73.6,55.9,30.03,NNW,342,7.0,7.0,54,0.00,CLR,SKC,0.01,0.0,WeatherDisplay:10.37,2013-10-23 00:42:00,
2013-10-22 19:47:00,73.5,56.3,30.03,North,5,4.6,4.6,55,0.00,CLR,SKC,0.01,0.0,WeatherDisplay:10.37,2013-10-23 00:47:00,
2013-10-22 19:52:00,73.3,56.2,30.03,North,5,4.6,4.6,55,0.00,CLR,SKC,0.01,0.0,WeatherDisplay:10.37,2013-10-23 00:52:00,
2013-10-22 19:57:00,73.2,55.6,30.03,North,349,9.2,9.2,54,0.00,CLR,SKC,0.01,0.0,WeatherDisplay:10.37,2013-10-23 00:57:00,
2013-10-22 20:02:00,73.1,55.5,30.03,NNE,18,5.8,5.8,54,0.00,CLR,SKC,0.01,0.0,WeatherDisplay:10.37,2013-10-23 01:02:00,
2013-10-22 20:07:00,73.0,56.4,30.03,NNE,17,4.6,4.6,56,0.00,CLR,SKC,0.01,0.0,WeatherDisplay:10.37,2013-10-23 01:07:00,
2013-10-22 20:12:00,72.8,56.2,30.04,NNW,338,3.5,3.5,56,0.00,CLR,SKC,0.01,0.0,WeatherDisplay:10.37,2013-10-23 01:12:00,
2013-10-22 20:17:00,72.8,55.2,30.04,North,355,6.0,6.0,54,0.00,CLR,SKC,0.01,0.0,WeatherDisplay:10.37,2013-10-23 01:17:00,
2013-10-22 20:22:00,72.7,56.1,30.04,NNE,23,5.8,5.8,56,0.00,CLR,SKC,0.01,0.0,WeatherDisplay:10.37,2013-10-23 01:22:00,
2013-10-22 20:27:00,72.6,56.5,30.04,NE,37,5.8,5.8,57,0.00,CLR,SKC,0.01,0.0,WeatherDisplay:10.37,2013-10-23 01:27:00,
2013-10-22 20:32:00,72.4,56.3,30.04,North,5,9.2,9.2,57,0.00,CLR,SKC,0.01,0.0,WeatherDisplay:10.37,2013-10-23 01:32:00,
2013-10-22 20:37:00,72.4,56.3,30.04,NNE,26,9.2,9.2,57,0.00,CLR,SKC,0.01,0.0,WeatherDisplay:10.37,2013-10-23 01:37:00,
2013-10-22 20:42:00,72.4,55.3,30.05,North,5,6.9,6.9,55,0.00,CLR,SKC,0.01,0.0,WeatherDisplay:10.37,2013-10-23 01:42:00,
2013-10-22 20:47:00,72.4,55.3,30.05,North,11,9.2,9.2,55,0.00,CLR,SKC,0.01,0.0,WeatherDisplay:10.37,2013-10-23 01:47:00,
2013-10-22 20:52:00,72.3,55.7,30.05,North,355,6.0,6.0,56,0.00,CLR,SKC,0.01,0.0,WeatherDisplay:10.37,2013-10-23 01:52:00,
2013-10-22 20:57:00,72.1,54.5,30.05,NNE,22,11.5,11.5,54,0.00,CLR,SKC,0.01,0.0,WeatherDisplay:10.37,2013-10-23 01:57:00,
2013-10-22 21:02:00,72.0,54.4,30.05,NNE,23,9.2,9.2,54,0.00,CLR,SKC,0.01,0.0,WeatherDisplay:10.37,2013-10-23 02:02:00,
2013-10-22 21:07:00,71.9,54.9,30.05,NNE,12,6.9,6.9,55,0.00,CLR,SKC,0.01,0.0,WeatherDisplay:10.37,2013-10-23 02:07:00,
2013-10-22 21:12:00,71.6,54.1,30.06,North,5,10.4,10.4,54,0.00,CLR,SKC,0.01,0.0,WeatherDisplay:10.37,2013-10-23 02:12:00,
2013-10-22 21:17:00,71.6,54.1,30.06,NNE,27,11.5,11.5,54,0.00,CLR,SKC,0.01,0.0,WeatherDisplay:10.37,2013-10-23 02:17:00,
2013-10-22 21:22:00,71.5,52.9,30.06,NNW,348,10.0,10.0,52,0.00,CLR,SKC,0.01,0.0,WeatherDisplay:10.37,2013-10-23 02:22:00,
2013-10-22 21:27:00,71.3,53.3,30.07,NE,34,11.5,11.5,53,0.00,CLR,SKC,0.01,0.0,WeatherDisplay:10.37,2013-10-23 02:27:00,
2013-10-22 21:32:00,71.3,53.3,30.07,NNW,348,10.4,10.4,53,0.00,CLR,SKC,0.01,0.0,WeatherDisplay:10.37,2013-10-23 02:32:00,
2013-10-22 21:37:00,71.1,52.6,30.07,North,360,9.2,9.2,52,0.00,CLR,SKC,0.01,0.0,WeatherDisplay:10.37,2013-10-23 02:37:00,
2013-10-22 21:42:00,71.1,52.6,30.07,NNE,21,9.2,9.2,52,0.00,CLR,SKC,0.01,0.0,WeatherDisplay:10.37,2013-10-23 02:42:00,
2013-10-22 21:47:00,71.0,52.5,30.07,North,9,10.4,10.4,52,0.00,CLR,SKC,0.01,0.0,WeatherDisplay:10.37,2013-10-23 02:47:00,
2013-10-22 21:52:00,70.9,52.4,30.07,NE,35,10.4,10.4,52,0.00,CLR,SKC,0.01,0.0,WeatherDisplay:10.37,2013-10-23 02:52:00,
2013-10-22 21:57:00,70.7,53.2,30.07,NNE,13,6.0,6.0,54,0.00,CLR,SKC,0.01,0.0,WeatherDisplay:10.37,2013-10-23 02:57:00,
2013-10-22 22:02:00,70.5,53.6,30.07,NNW,342,7.0,7.0,55,0.00,CLR,SKC,0.01,0.0,WeatherDisplay:10.37,2013-10-23 03:02:00,
2013-10-22 22:07:00,70.4,53.0,30.07,NNE,29,9.2,9.2,54,0.00,CLR,SKC,0.01,0.0,WeatherDisplay:10.37,2013-10-23 03:07:00,
2013-10-22 22:12:00,70.4,52.4,30.07,NE,39,10.4,10.4,53,0.00,CLR,SKC,0.01,0.0,WeatherDisplay:10.37,2013-10-23 03:12:00,
2013-10-22 22:17:00,70.3,52.9,30.07,NNE,31,6.9,6.9,54,0.00,CLR,SKC,0.01,0.0,WeatherDisplay:10.37,2013-10-23 03:17:00,
2013-10-22 22:22:00,70.3,53.9,30.07,North,355,6.9,6.9,56,0.00,CLR,SKC,0.01,0.0,WeatherDisplay:10.37,2013-10-23 03:22:00,
2013-10-22 22:27:00,70.1,53.7,30.08,NNE,17,9.0,9.0,56,0.00,CLR,SKC,0.01,0.0,WeatherDisplay:10.37,2013-10-23 03:27:00,
2013-10-22 22:32:00,70.0,53.1,30.08,NNW,344,6.9,6.9,55,0.00,CLR,SKC,0.01,0.0,WeatherDisplay:10.37,2013-10-23 03:32:00,
2013-10-22 22:37:00,69.9,53.0,30.08,North,360,9.2,9.2,55,0.00,CLR,SKC,0.01,0.0,WeatherDisplay:10.37,2013-10-23 03:37:00,
2013-10-22 22:42:00,69.9,53.0,30.08,WNW,301,9.2,9.2,55,0.00,CLR,SKC,0.01,0.0,WeatherDisplay:10.37,2013-10-23 03:42:00,
2013-10-22 22:47:00,69.8,52.9,30.08,NNE,13,9.2,9.2,55,0.00,CLR,SKC,0.01,0.0,WeatherDisplay:10.37,2013-10-23 03:47:00,
2013-10-22 22:52:00,69.8,53.4,30.08,NNE,30,6.9,6.9,56,0.00,CLR,SKC,0.01,0.0,WeatherDisplay:10.37,2013-10-23 03:52:00,
2013-10-22 22:57:00,69.6,53.7,30.08,NNE,16,4.6,4.6,57,0.00,CLR,SKC,0.01,0.0,WeatherDisplay:10.37,2013-10-23 03:57:00,
2013-10-22 23:01:00,69.6,53.7,30.08,North,5,5.0,5.0,57,0.00,CLR,SKC,0.01,0.0,WeatherDisplay:10.37,2013-10-23 04:01:00,
2013-10-22 23:03:00,69.5,55.0,30.08,NNW,343,3.5,3.5,60,0.00,CLR,SKC,0.01,0.0,WeatherDisplay:10.37,2013-10-23 04:03:00,
2013-10-22 23:08:00,69.4,54.4,30.08,NNW,333,4.6,4.6,59,0.00,CLR,SKC,0.01,0.0,WeatherDisplay:10.37,2013-10-23 04:08:00,
2013-10-22 23:13:00,69.3,54.8,30.08,NNE,17,4.6,4.6,60,0.00,CLR,SKC,0.01,0.0,WeatherDisplay:10.37,2013-10-23 04:13:00,
2013-10-22 23:18:00,69.1,55.1,30.08,NNE,16,4.6,4.6,61,0.00,CLR,SKC,0.01,0.0,WeatherDisplay:10.37,2013-10-23 04:18:00,
2013-10-22 23:23:00,69.0,55.0,30.08,NNE,29,3.5,3.5,61,0.00,CLR,SKC,0.01,0.0,WeatherDisplay:10.37,2013-10-23 04:23:00,
2013-10-22 23:28:00,68.8,54.8,30.08,NNE,25,3.5,3.5,61,0.00,CLR,SKC,0.01,0.0,WeatherDisplay:10.37,2013-10-23 04:28:00,
2013-10-22 23:33:00,68.7,55.6,30.08,NNE,23,3.0,3.0,63,0.00,CLR,SKC,0.01,0.0,WeatherDisplay:10.37,2013-10-23 04:33:00,
2013-10-22 23:38:00,68.6,55.9,30.08,NNW,347,3.5,3.5,64,0.00,CLR,SKC,0.01,0.0,WeatherDisplay:10.37,2013-10-23 04:38:00,
2013-10-22 23:43:00,68.4,55.7,30.08,North,360,3.5,3.5,64,0.00,CLR,SKC,0.01,0.0,WeatherDisplay:10.37,2013-10-23 04:43:00,
2013-10-22 23:48:00,68.2,56.0,30.08,North,9,3.5,3.5,65,0.00,CLR,SKC,0.01,0.0,WeatherDisplay:10.37,2013-10-23 04:48:00,
2013-10-22 23:53:00,68.1,56.3,30.08,North,355,3.5,3.5,66,0.00,CLR,SKC,0.01,0.0,WeatherDisplay:10.37,2013-10-23 04:53:00,
2013-10-22 23:58:00,67.9,56.5,30.08,NNE,18,3.5,3.5,67,0.00,CLR,SKC,0.01,0.0,WeatherDisplay:10.37,2013-10-23 04:58:00,